Flight Track Log - Related Links

Times and Time Zones

All times are in EDT time to prevent confusion due to time zone crossing. See the UAL1169 flight status page for this flight to view local times or setup timezone preferences in your user account.

Time Position Orientation Groundspeed Altitude Reporting Facility
EDT Latitude Longitude Course Direction KTS MPH feet Rate Location/Type
Wed 05:19:40 PM 33.8970 -118.5050 230° Southwest 253 291 3,500  Level FlightAware ADS-B
Wed 05:20:11 PM 33.8720 -118.5400 229° Southwest 276 318 4,100 1,759 Climbing FlightAware ADS-B
Wed 05:20:38 PM 33.8410 -118.5570 204° Southwest 270 311 5,200 2,654 Climbing FlightAware ADS-B
Wed 05:21:03 PM 33.8100 -118.5509 171° South 270 311 6,400 2,581 Climbing FlightAware ADS-B
Wed 05:22:04 PM 33.7410 -118.5326 168° South 287 330 8,900 2,880 Climbing FlightAware ADS-B
Wed 05:22:43 PM 33.6912 -118.4989 151° Southeast 290 334 11,200 2,656 Climbing FlightAware ADS-B
Wed 05:23:05 PM 33.6816 -118.4694 111° Southeast 310 357 11,600 1,731 Climbing FlightAware ADS-B
Wed 05:23:35 PM 33.6673 -118.4198 109° East 328 377 12,700 2,548 Climbing FlightAware ADS-B
Wed 05:24:18 PM 33.6469 -118.3416 107° East 344 396 14,700 2,427 Climbing FlightAware ADS-B
Wed 05:25:04 PM 33.6449 -118.2475 91° East 358 412 16,300 2,211 Climbing FlightAware ADS-B
Wed 05:25:34 PM 33.6454 -118.1939 89° East 365 420 17,500 2,361 Climbing FlightAware ADS-B
Wed 05:26:05 PM 33.6453 -118.1247 90° East 370 426 18,700 2,270 Climbing FlightAware ADS-B
Wed 05:26:48 PM 33.6448 -118.0371 90° East 382 440 20,300 1,870 Climbing FlightAware ADS-B
Wed 05:27:22 PM 33.6445 -117.9604 90° East 396 456 21,100 1,667 Climbing FlightAware ADS-B
Wed 05:28:00 PM 33.6443 -117.8806 90° East 408 470 22,300 1,725 Climbing FlightAware ADS-B
Wed 05:28:42 PM 33.6440 -117.7836 90° East 416 479 23,400 1,583 Climbing FlightAware ADS-B
Wed 05:29:12 PM 33.6438 -117.7110 90° East 423 487 24,200 1,500 Climbing FlightAware ADS-B
Wed 05:29:54 PM 33.6434 -117.6129 90° East 433 498 25,200 1,403 Climbing FlightAware ADS-B
Wed 05:30:29 PM 33.6429 -117.5329 90° East 444 511 26,000 1,343 Climbing FlightAware ADS-B
Wed 05:31:01 PM 33.6424 -117.4431 90° East 450 518 26,700 1,455 Climbing FlightAware ADS-B
Wed 05:31:35 PM 33.6419 -117.3614 90° East 454 522 27,600 1,662 Climbing FlightAware ADS-B
Wed 05:32:06 PM 33.6417 -117.3203 90° East 458 527 28,500 1,238 Climbing FlightAware ADS-B
Wed 05:32:38 PM 33.6411 -117.2237 90° East 462 532 28,900 957 Climbing FlightAware ADS-B
Wed 05:33:15 PM 33.6401 -117.1089 91° East 470 541 29,600 1,164 Climbing FlightAware ADS-B
Wed 05:33:45 PM 33.6394 -117.0255 91° East 474 545 30,200 1,114 Climbing FlightAware ADS-B
Wed 05:34:25 PM 33.6384 -116.9183 91° East 479 551 30,900 1,054 Climbing FlightAware ADS-B
Wed 05:34:59 PM 33.6374 -116.8283 91° East 483 556 31,500 1,014 Climbing FlightAware ADS-B
Wed 05:35:36 PM 33.6364 -116.7299 91° East 485 558 32,100 1,263 Climbing FlightAware ADS-B
Wed 05:36:15 PM 33.6353 -116.6240 91° East 479 551 33,100 1,959 Climbing FlightAware ADS-B
Wed 05:36:25 PM 33.6350 -116.6039 91° East 478 550 33,700 1,200 Climbing FlightAware ADS-B
Wed 05:37:15 PM 33.6244 -116.4707 95° East 468 539 34,300 818 Climbing FlightAware ADS-B
Wed 05:37:53 PM 33.6087 -116.3721 101° East 467 537 34,900 583 Climbing FlightAware ADS-B
Wed 05:38:27 PM 33.5974 -116.3032 101° East 468 539 35,000 83 Climbing FlightAware ADS-B
Wed 05:39:05 PM 33.5809 -116.2001 101° East 467 537 35,000  Level FlightAware ADS-B
Wed 05:39:36 PM 33.5669 -116.1123 101° East 467 537 35,000  Level FlightAware ADS-B
Wed 05:40:16 PM 33.5524 -116.0201 101° East 469 540 35,000  Level FlightAware ADS-B
Wed 05:40:55 PM 33.5345 -115.9084 101° East 473 544 35,000  Level FlightAware ADS-B
Wed 05:41:51 PM 33.5150 -115.7840 101° East 475 547 35,000  Level FlightAware ADS-B
Wed 05:42:22 PM 33.5010 -115.7030 102° East 476 548 35,000  Level FlightAware ADS-B
Wed 05:43:24 PM 33.4740 -115.5380 101° East 485 558 35,000  Level FlightAware ADS-B
Wed 05:43:56 PM 33.4630 -115.4690 101° East 487 560 35,000  Level FlightAware ADS-B
Wed 05:44:33 PM 33.4450 -115.3610 101° East 489 563 35,000  Level FlightAware ADS-B
Wed 05:45:27 PM 33.4200 -115.2130 101° East 491 565 35,000  Level FlightAware ADS-B
Wed 05:46:18 PM 33.3980 -115.0780 101° East 491 565 35,000  Level FlightAware ADS-B
Wed 05:47:08 PM 33.3750 -114.9450 102° East 492 566 35,000  Level FlightAware ADS-B
Wed 05:48:03 PM 33.3500 -114.7990 102° East 490 564 35,000  Level FlightAware ADS-B
Wed 05:48:44 PM 33.3330 -114.7000 102° East 492 566 35,000  Level FlightAware ADS-B
Wed 05:49:52 PM 33.2970 -114.4910 102° East 491 565 35,000  Level FlightAware ADS-B
Wed 05:50:42 PM 33.2740 -114.3590 102° East 490 564 35,000  Level FlightAware ADS-B
Wed 05:51:37 PM 33.2490 -114.2140 102° East 488 562 35,000  Level FlightAware ADS-B
Wed 05:52:04 PM 33.2370 -114.1500 103° East 488 562 35,000  Level FlightAware ADS-B
Wed 05:53:07 PM 33.2060 -113.9760 102° East 489 563 35,000  Level FlightAware ADS-B
Wed 05:53:57 PM 33.1830 -113.8450 102° East 492 566 35,000  Level FlightAware ADS-B
Wed 05:54:42 PM 33.1610 -113.7250 102° East 492 566 35,000  Level FlightAware ADS-B
Wed 05:55:07 PM 33.1500 -113.6640 102° East 492 566 35,000  Level FlightAware ADS-B
Wed 05:55:37 PM 33.1360 -113.5820 102° East 493 567 35,000  Level FlightAware ADS-B
Wed 05:56:27 PM 33.1120 -113.4520 102° East 493 567 35,000  Level FlightAware ADS-B
Wed 05:57:17 PM 33.0870 -113.3150 102° East 492 566 35,000  Level FlightAware ADS-B
Wed 05:58:05 PM 33.0650 -113.1990 103° East 489 563 35,000  Level FlightAware ADS-B
Wed 05:59:06 PM 33.0340 -113.0330 103° East 488 562 35,000  Level FlightAware ADS-B
Wed 06:00:02 PM 33.0070 -112.8830 102° East 488 562 35,000  Level FlightAware ADS-B
Wed 06:00:55 PM 32.9810 -112.7480 103° East 488 562 35,000  Level FlightAware ADS-B
Wed 06:01:43 PM 32.9560 -112.6170 103° East 488 562 35,000  Level FlightAware ADS-B
Wed 06:02:31 PM 32.9320 -112.4900 103° East 489 563 35,000  Level FlightAware ADS-B
Wed 06:03:25 PM 32.9060 -112.3560 103° East 491 565 35,000  Level FlightAware ADS-B
Wed 06:04:19 PM 32.8790 -112.2120 103° East 494 568 35,000  Level FlightAware ADS-B
Wed 06:05:07 PM 32.8530 -112.0790 103° East 495 570 35,000  Level FlightAware ADS-B
Wed 06:05:39 PM 32.8370 -111.9980 103° East 497 572 35,000  Level FlightAware ADS-B
Wed 06:06:33 PM 32.8090 -111.8560 103° East 500 575 35,000  Level FlightAware ADS-B
Wed 06:07:07 PM 32.7910 -111.7610 103° East 500 575 35,000  Level FlightAware ADS-B
Wed 06:07:55 PM 32.7650 -111.6330 104° East 501 577 35,000  Level FlightAware ADS-B
Wed 06:08:55 PM 32.7320 -111.4700 103° East 503 579 35,000  Level FlightAware ADS-B
Wed 06:09:23 PM 32.7170 -111.3950 103° East 503 579 35,000  Level FlightAware ADS-B
Wed 06:09:55 PM 32.7000 -111.3090 103° East 502 578 35,000  Level FlightAware ADS-B
Wed 06:10:47 PM 32.6720 -111.1700 103° East 501 577 35,000  Level FlightAware ADS-B
Wed 06:11:37 PM 32.6450 -111.0370 104° East 500 575 35,000  Level FlightAware ADS-B
Wed 06:12:25 PM 32.6190 -110.9120 104° East 502 578 35,000  Level FlightAware ADS-B
Wed 06:13:27 PM 32.5860 -110.7490 103° East 506 582 35,000  Level FlightAware ADS-B
Wed 06:14:23 PM 32.5540 -110.5930 104° East 506 582 35,000  Level FlightAware ADS-B
Wed 06:15:14 PM 32.5250 -110.4560 104° East 510 587 35,000  Level FlightAware ADS-B
Wed 06:15:35 PM 32.5130 -110.4000 104° East 511 588 35,000  Level FlightAware ADS-B
Wed 06:16:11 PM 32.4940 -110.3070 104° East 511 588 35,000  Level FlightAware ADS-B
Wed 06:16:59 PM 32.4650 -110.1720 104° East 513 590 35,000  Level FlightAware ADS-B
Wed 06:17:51 PM 32.4350 -110.0300 104° East 513 590 35,000  Level FlightAware ADS-B
Wed 06:18:33 PM 32.4110 -109.9160 104° East 514 592 35,000  Level FlightAware ADS-B
Wed 06:19:31 PM 32.3770 -109.7570 104° East 516 594 35,000  Level FlightAware ADS-B
Wed 06:20:29 PM 32.3430 -109.5990 104° East 515 593 35,000  Level FlightAware ADS-B
Wed 06:20:57 PM 32.3260 -109.5210 104° East 515 593 35,000  Level FlightAware ADS-B
Wed 06:21:43 PM 32.2990 -109.3980 105° East 515 593 35,000  Level FlightAware ADS-B
Wed 06:22:31 PM 32.2700 -109.2680 105° East 516 594 35,000  Level FlightAware ADS-B
Wed 06:23:29 PM 32.2340 -109.1100 105° East 515 593 35,000  Level FlightAware ADS-B
Wed 06:24:18 PM 32.2100 -108.9990 104° East 513 590 35,000  Level FlightAware ADS-B
Wed 06:24:53 PM 32.1820 -108.8840 106° East 514 592 35,000  Level FlightAware ADS-B
Wed 06:25:54 PM 32.1520 -108.7420 104° East 514 592 35,000  Level FlightAware ADS-B
Wed 06:26:31 PM 32.1340 -108.6570 104° East 514 592 35,000  Level FlightAware ADS-B
Wed 06:27:08 PM 32.1160 -108.5710 104° East 514 592 35,000  Level FlightAware ADS-B
Wed 06:27:56 PM 32.0920 -108.4600 104° East 514 592 35,000  Level FlightAware ADS-B
Wed 06:28:58 PM 32.0620 -108.3160 104° East 514 592 35,000  Level FlightAware ADS-B
Wed 06:29:46 PM 32.0380 -108.2050 104° East 514 592 35,000  Level FlightAware ADS-B
Wed 06:30:35 PM 32.0150 -108.0920 103° East 514 592 35,000  Level FlightAware ADS-B
Wed 06:31:35 PM 31.9850 -107.9530 104° East 514 592 35,000  Level FlightAware ADS-B
Wed 06:33:22 PM 31.9040 -107.5040 102° East 525 604 35,000  Level FlightAware ADS-B
Wed 06:33:37 PM 31.9000 -107.4480 95° East 524 603 35,000  Level FlightAware ADS-B
Wed 06:34:32 PM 31.8890 -107.2960 95° East 523 602 35,000  Level FlightAware ADS-B
Wed 06:35:17 PM 31.8800 -107.1640 95° East 519 597 35,000  Level FlightAware ADS-B
Wed 06:36:07 PM 31.8700 -107.0220 95° East 514 592 35,000  Level FlightAware ADS-B
Wed 06:36:42 PM 31.8630 -106.9270 95° East 513 590 35,000  Level FlightAware ADS-B
Wed 06:37:32 PM 31.8530 -106.7870 95° East 510 587 35,000  Level FlightAware ADS-B
Wed 06:38:32 PM 31.8410 -106.6230 95° East 508 585 35,000  Level FlightAware ADS-B
Wed 06:38:57 PM 31.8360 -106.5560 95° East 508 585 35,000  Level FlightAware ADS-B
Wed 06:40:02 PM 31.8230 -106.3790 95° East 508 585 35,000  Level FlightAware ADS-B
Wed 06:40:42 PM 31.8110 -106.2670 97° East 507 583 35,000  Level FlightAware ADS-B
Wed 06:41:22 PM 31.7860 -106.1620 106° East 506 582 35,000  Level FlightAware ADS-B
Wed 06:42:22 PM 31.7470 -106.0050 106° East 506 582 35,000  Level FlightAware ADS-B
Wed 06:43:22 PM 31.7080 -105.8480 106° East 504 580 35,000  Level FlightAware ADS-B
Wed 06:43:59 PM 31.6900 -105.7720 106° East 504 580 35,000  Level FlightAware ADS-B
Wed 06:44:47 PM 31.6630 -105.6650 106° East 504 580 35,000  Level FlightAware ADS-B
Wed 06:45:35 PM 31.6370 -105.5570 106° East 504 580 35,000  Level FlightAware ADS-B
Wed 06:46:12 PM 31.6170 -105.4740 106° East 504 580 35,000  Level FlightAware ADS-B
Wed 06:47:13 PM 31.5840 -105.3380 106° East 504 580 35,000  Level FlightAware ADS-B
Wed 06:48:12 PM 31.5510 -105.2060 106° East 504 580 35,000  Level FlightAware ADS-B
Wed 06:49:09 PM 31.4810 -104.9510 108° East 507 583 35,000  Level FlightAware ADS-B
Wed 06:50:00 PM 31.4430 -104.8050 107° East 505 581 35,000  Level FlightAware ADS-B
Wed 06:50:46 PM 31.4110 -104.6820 107° East 506 582 35,000  Level FlightAware ADS-B
Wed 06:51:38 PM 31.3750 -104.5470 107° East 505 581 35,000  Level FlightAware ADS-B
Wed 06:52:05 PM 31.3580 -104.4800 107° East 506 582 35,000  Level FlightAware ADS-B
Wed 06:52:39 PM 31.3340 -104.3910 108° East 506 582 35,000  Level FlightAware ADS-B
Wed 06:53:38 PM 31.2930 -104.2360 107° East 506 582 35,000  Level FlightAware ADS-B
Wed 06:53:52 PM 31.2840 -104.2020 107° East 506 582 35,000  Level FlightAware ADS-B
Wed 06:55:08 PM 31.2400 -104.0320 107° East 506 582 35,000  Level FlightAware ADS-B
Wed 06:55:54 PM 31.2130 -103.9300 107° East 506 582 35,000  Level FlightAware ADS-B
Wed 06:56:32 PM 31.1910 -103.8460 107° East 506 582 35,000  Level FlightAware ADS-B
Wed 06:57:09 PM 31.1690 -103.7630 107° East 506 582 35,000  Level FlightAware ADS-B
Wed 06:58:10 PM 31.1340 -103.6280 107° East 506 582 35,000  Level FlightAware ADS-B
Wed 06:58:35 PM 31.1190 -103.5720 107° East 506 582 35,000  Level FlightAware ADS-B
Wed 06:59:35 PM 31.0840 -103.4390 107° East 506 582 35,000  Level FlightAware ADS-B
Wed 07:00:36 PM 31.0490 -103.3030 107° East 506 582 35,000  Level FlightAware ADS-B
Wed 07:01:00 PM 31.0350 -103.2500 107° East 506 582 35,000  Level FlightAware ADS-B
Wed 07:02:23 PM 30.9240 -102.8710 109° East 506 582 35,000  Level FlightAware ADS-B
Wed 07:03:12 PM 30.8910 -102.7390 106° East 505 581 35,000  Level FlightAware ADS-B
Wed 07:04:09 PM 30.8540 -102.5940 107° East 504 580 35,000  Level FlightAware ADS-B
Wed 07:04:45 PM 30.8290 -102.4990 107° East 503 579 35,000  Level FlightAware ADS-B
Wed 07:05:31 PM 30.7980 -102.3830 107° East 502 578 35,000  Level FlightAware ADS-B
Wed 07:06:08 PM 30.7740 -102.2880 106° East 499 574 35,000  Level FlightAware ADS-B
Wed 07:07:20 PM 30.7270 -102.1130 107° East 496 571 35,000  Level FlightAware ADS-B
Wed 07:08:20 PM 30.6930 -101.9820 107° East 496 571 35,000  Level FlightAware ADS-B
Wed 07:09:10 PM 30.6500 -101.8230 107° East 499 574 35,000  Level FlightAware ADS-B
Wed 07:09:54 PM 30.6200 -101.7090 107° East 500 575 35,000  Level FlightAware ADS-B
Wed 07:10:54 PM 30.5790 -101.5570 107° East 499 574 35,000  Level FlightAware ADS-B
Wed 07:11:39 PM 30.5480 -101.4420 107° East 499 574 35,000  Level FlightAware ADS-B
Wed 07:12:32 PM 30.5120 -101.3100 108° East 498 573 35,000  Level FlightAware ADS-B
Wed 07:13:22 PM 30.4760 -101.1790 108° East 499 574 35,000  Level FlightAware ADS-B
Wed 07:14:14 PM 30.4400 -101.0480 108° East 499 574 35,000  Level FlightAware ADS-B
Wed 07:15:12 PM 30.3990 -100.8990 108° East 500 575 35,000  Level FlightAware ADS-B
Wed 07:15:48 PM 30.3740 -100.8060 107° East 501 577 35,000  Level FlightAware ADS-B
Wed 07:16:48 PM 30.3310 -100.6530 108° East 502 578 35,000  Level FlightAware ADS-B
Wed 07:17:32 PM 30.3000 -100.5410 108° East 503 579 35,000  Level FlightAware ADS-B
Wed 07:18:20 PM 30.2660 -100.4180 108° East 504 580 35,000  Level FlightAware ADS-B
Wed 07:18:53 PM 30.2430 -100.3350 108° East 505 581 35,000  Level FlightAware ADS-B
Wed 07:19:20 PM 30.2230 -100.2650 108° East 507 583 35,000  Level FlightAware ADS-B
Wed 07:20:20 PM 30.1790 -100.1090 108° East 508 585 35,000  Level FlightAware ADS-B
Wed 07:21:15 PM 30.1390 -99.9680 108° East 509 586 35,000  Level FlightAware ADS-B
Wed 07:22:04 PM 30.1030 -99.8400 108° East 509 586 35,000  Level FlightAware ADS-B
Wed 07:22:26 PM 30.0870 -99.7850 109° East 509 586 35,000  Level FlightAware ADS-B
Wed 07:23:16 PM 30.0500 -99.6550 108° East 510 587 35,000  Level FlightAware ADS-B
Wed 07:24:14 PM 30.0070 -99.5050 108° East 511 588 35,000  Level FlightAware ADS-B
Wed 07:24:56 PM 29.9750 -99.3960 109° East 512 589 35,000  Level FlightAware ADS-B
Wed 07:25:22 PM 29.9560 -99.3290 108° East 512 589 35,000  Level FlightAware ADS-B
Wed 07:26:12 PM 29.9169 -99.1999 109° East 35,000  Level FlightAware ADS-B
Wed 07:27:13 PM 29.8610 -99.0480 113° Southeast 510 587 35,000  Level FlightAware ADS-B
Wed 07:27:37 PM 29.8390 -98.9880 113° Southeast 510 587 35,000  Level FlightAware ADS-B
Wed 07:28:30 PM 29.7910 -98.8570 113° Southeast 510 587 35,000  Level FlightAware ADS-B
Wed 07:29:24 PM 29.7410 -98.7210 113° Southeast 509 586 35,000  Level FlightAware ADS-B
Wed 07:30:02 PM 29.7056 -98.6266 113° Southeast 509 586 35,000  Level FlightAware ADS-B
Wed 07:30:32 PM 29.6776 -98.5512 113° Southeast 510 587 35,000  Level FlightAware ADS-B
Wed 07:30:57 PM 29.6565 -98.4878 111° Southeast 511 588 35,000  Level FlightAware ADS-B
Wed 07:31:15 PM 29.6479 -98.4410 102° East 512 589 35,000  Level FlightAware ADS-B
Wed 07:31:39 PM 29.6454 -98.3747 92° East 512 589 35,000  Level FlightAware ADS-B
Wed 07:32:18 PM 29.6470 -98.2706 89° East 512 589 35,000  Level FlightAware ADS-B
Wed 07:32:56 PM 29.6484 -98.1663 89° East 512 589 35,000  Level FlightAware ADS-B
Wed 07:33:17 PM 29.6485 -98.1079 90° East 512 589 35,000  Level FlightAware ADS-B
Wed 07:33:20 PM 29.6481 -98.0997 93° East 512 589 35,000  Level FlightAware ADS-B
Wed 07:33:48 PM 29.6445 -98.0239 93° East 514 592 35,000  Level FlightAware ADS-B
Wed 07:33:51 PM 29.6442 -98.0180 93° East 514 592 35,000  Level FlightAware ADS-B
Wed 07:34:20 PM 29.6402 -97.9367 93° East 514 592 35,000  Level FlightAware ADS-B
Wed 07:34:22 PM 29.6401 -97.9337 92° East 514 592 35,000  Level FlightAware ADS-B
Wed 07:34:52 PM 29.6361 -97.8496 93° East 514 592 35,000  Level FlightAware ADS-B
Wed 07:34:54 PM 29.6360 -97.8468 92° East 514 592 35,000  Level FlightAware ADS-B
Wed 07:35:24 PM 29.6322 -97.7651 93° East 515 593 35,000  Level FlightAware ADS-B
Wed 07:35:40 PM 29.6301 -97.7201 93° East 515 593 35,000 -800 Level FlightAware ADS-B
Wed 07:35:54 PM 29.6283 -97.6830 93° East 515 593 34,600 -2,250 Descending FlightAware ADS-B
Wed 07:36:12 PM 29.6259 -97.6339 93° East 515 593 33,800 -2,824 Descending FlightAware ADS-B
Wed 07:36:28 PM 29.6235 -97.5880 93° East 516 594 33,000 -2,647 Descending FlightAware ADS-B
Wed 07:36:46 PM 29.6208 -97.5404 94° East 512 589 32,300 -2,250 Descending FlightAware ADS-B
Wed 07:37:00 PM 29.6189 -97.5034 93° East 510 587 31,800 -2,182 Descending FlightAware ADS-B
Wed 07:37:30 PM 29.6148 -97.4231 93° East 503 579 30,700 -2,250 Descending FlightAware ADS-B
Wed 07:37:32 PM 29.6146 -97.4177 92° East 509 586 30,600 -2,200 Descending FlightAware ADS-B
Wed 07:38:00 PM 29.6108 -97.3429 93° East 495 570 29,600 -2,250 Descending FlightAware ADS-B
Wed 07:38:12 PM 29.6093 -97.3121 93° East 492 566 29,100 -2,250 Descending FlightAware ADS-B
Wed 07:38:32 PM 29.6067 -97.2596 93° East 486 559 28,400 -1,935 Descending FlightAware ADS-B
Wed 07:38:43 PM 29.6054 -97.2320 93° East 484 557 28,100 -2,129 Descending FlightAware ADS-B
Wed 07:39:03 PM 29.6026 -97.1805 94° East 477 549 27,300 -2,160 Descending FlightAware ADS-B
Wed 07:39:33 PM 29.5981 -97.1059 94° East 461 531 26,300 -2,000 Descending FlightAware ADS-B
Wed 07:40:03 PM 29.5938 -97.0344 94° East 441 507 25,300 -1,967 Descending FlightAware ADS-B
Wed 07:40:34 PM 29.5901 -96.9650 93° East 424 488 24,300 -1,935 Descending FlightAware ADS-B
Wed 07:41:05 PM 29.5869 -96.8967 93° East 407 468 23,300 -1,869 Descending FlightAware ADS-B
Wed 07:41:35 PM 29.5838 -96.8331 93° East 391 450 22,400 -1,800 Descending FlightAware ADS-B
Wed 07:42:05 PM 29.5805 -96.7719 94° East 383 441 21,500 -1,770 Descending FlightAware ADS-B
Wed 07:42:36 PM 29.5774 -96.7097 93° East 386 444 20,600 -1,810 Descending FlightAware ADS-B
Wed 07:43:08 PM 29.5740 -96.6450 93° East 384 442 19,600 -1,839 Descending FlightAware ADS-B
Wed 07:43:38 PM 29.5701 -96.5840 94° East 380 437 18,700 -1,869 Descending FlightAware ADS-B
Wed 07:44:09 PM 29.5662 -96.5215 94° East 375 432 17,700 -1,935 Descending FlightAware ADS-B
Wed 07:44:40 PM 29.5626 -96.4611 94° East 374 430 16,700 -1,967 Descending FlightAware ADS-B
Wed 07:45:10 PM 29.5593 -96.4020 94° East 370 426 15,700 -2,100 Descending FlightAware ADS-B
Wed 07:45:40 PM 29.5556 -96.3423 94° East 362 417 14,600 -2,000 Descending FlightAware ADS-B
Wed 07:46:10 PM 29.5521 -96.2864 94° East 346 398 13,700 -1,800 Descending FlightAware ADS-B
Wed 07:46:40 PM 29.5489 -96.2326 94° East 332 382 12,800 -1,731 Descending FlightAware ADS-B
Wed 07:47:02 PM 29.5470 -96.1958 93° East 328 377 12,200 -1,778 Descending FlightAware ADS-B
Wed 07:47:07 PM 29.5471 -96.1859 89° East 329 379 12,000 -1,385 Descending FlightAware ADS-B
Wed 07:47:15 PM 29.5488 -96.1727 82° East 327 376 11,900 -923 Descending FlightAware ADS-B
Wed 07:47:20 PM 29.5505 -96.1647 76° East 325 374 11,800 -600 Descending FlightAware ADS-B
Wed 07:47:25 PM 29.5533 -96.1554 71° East 324 373 11,800  Level FlightAware ADS-B
Wed 07:47:32 PM 29.5571 -96.1456 66° East 324 373 11,800 -811 Level FlightAware ADS-B
Wed 07:48:02 PM 29.5796 -96.1003 60° Northeast 324 373 11,300 -900 Descending FlightAware ADS-B
Wed 07:48:32 PM 29.6025 -96.0551 60° Northeast 327 376 10,900 -984 Descending FlightAware ADS-B
Wed 07:49:03 PM 29.6254 -96.0094 60° Northeast 316 364 10,300 -1,125 Descending FlightAware ADS-B
Wed 07:49:20 PM 29.6376 -95.9850 60° Northeast 309 356 10,000 -938 Descending FlightAware ADS-B
Wed 07:49:35 PM 29.6483 -95.9637 60° Northeast 300 345 9,800 -387 Descending FlightAware ADS-B
Wed 07:49:51 PM 29.6588 -95.9428 60° Northeast 294 338 9,800  Level FlightAware ADS-B
Wed 07:50:03 PM 29.6674 -95.9258 60° Northeast 292 336 9,800  Level FlightAware ADS-B
Wed 07:50:19 PM 29.6776 -95.9053 60° Northeast 291 335 9,800  Level FlightAware ADS-B
Wed 07:50:34 PM 29.6879 -95.8847 60° Northeast 289 333 9,800  Level FlightAware ADS-B
Wed 07:50:49 PM 29.6981 -95.8645 60° Northeast 289 333 9,800  Level FlightAware ADS-B
Wed 07:51:04 PM 29.7081 -95.8445 60° Northeast 289 333 9,800  Level FlightAware ADS-B
Wed 07:51:19 PM 29.7183 -95.8243 60° Northeast 289 333 9,800  Level FlightAware ADS-B
Wed 07:51:35 PM 29.7285 -95.8040 60° Northeast 289 333 9,800  Level FlightAware ADS-B
Wed 07:51:50 PM 29.7387 -95.7837 60° Northeast 290 334 9,800  Level FlightAware ADS-B
Wed 07:52:06 PM 29.7496 -95.7621 60° Northeast 290 334 9,800  Level FlightAware ADS-B
Wed 07:52:21 PM 29.7597 -95.7419 60° Northeast 289 333 9,800 -194 Level FlightAware ADS-B
Wed 07:52:37 PM 29.7700 -95.7214 60° Northeast 288 331 9,700 -800 Descending FlightAware ADS-B
Wed 07:52:51 PM 29.7798 -95.7018 60° Northeast 284 327 9,400 -1,200 Descending FlightAware ADS-B
Wed 07:53:07 PM 29.7902 -95.6811 60° Northeast 282 325 9,100 -1,273 Descending FlightAware ADS-B
Wed 07:53:24 PM 29.8010 -95.6591 60° Northeast 281 323 8,700 -1,543 Descending FlightAware ADS-B
Wed 07:53:42 PM 29.8122 -95.6363 60° Northeast 282 325 8,200 -1,455 Descending FlightAware ADS-B
Wed 07:53:57 PM 29.8221 -95.6160 61° Northeast 278 320 7,900 -1,313 Descending FlightAware ADS-B
Wed 07:54:14 PM 29.8327 -95.5948 60° Northeast 273 314 7,500 -1,235 Descending FlightAware ADS-B
Wed 07:54:31 PM 29.8433 -95.5738 60° Northeast 269 310 7,200 -1,273 Descending FlightAware ADS-B
Wed 07:54:47 PM 29.8531 -95.5543 60° Northeast 266 306 6,800 -1,500 Descending FlightAware ADS-B
Wed 07:55:03 PM 29.8629 -95.5347 60° Northeast 265 305 6,400 -1,548 Descending FlightAware ADS-B
Wed 07:55:18 PM 29.8729 -95.5148 60° Northeast 267 307 6,000 -1,500 Descending FlightAware ADS-B (EGLF / FAB)
Wed 07:55:19 PM 29.8729 -95.5148 164° South 267 307 6,000 -632 Level FlightAware ADS-B
Wed 07:55:37 PM 29.8839 -95.4930 60° Northeast 267 307 5,800 -500 Descending FlightAware ADS-B
Wed 07:55:43 PM 29.8871 -95.4856 63° Northeast 266 306 5,800  Level FlightAware ADS-B
Wed 07:55:47 PM 29.8890 -95.4802 68° East 266 306 5,800  Level FlightAware ADS-B
Wed 07:55:52 PM 29.8912 -95.4733 70° East 266 306 5,800  Level FlightAware ADS-B
Wed 07:55:58 PM 29.8932 -95.4649 75° East 266 306 5,800  Level FlightAware ADS-B
Wed 07:56:04 PM 29.8946 -95.4570 78° East 266 306 5,800  Level FlightAware ADS-B
Wed 07:56:13 PM 29.8960 -95.4433 83° East 267 307 5,800  Level FlightAware ADS-B
Wed 07:56:19 PM 29.8961 -95.4359 89° East 267 307 5,800  Level FlightAware ADS-B
Wed 07:56:34 PM 29.8960 -95.4141 90° East 267 307 5,800  Level FlightAware ADS-B
Wed 07:56:49 PM 29.8962 -95.3926 89° East 268 308 5,800  Level FlightAware ADS-B
Wed 07:57:12 PM 29.8963 -95.3602 90° East 269 310 5,800  Level FlightAware ADS-B
Wed 07:57:34 PM 29.8964 -95.3284 90° East 271 312 5,800  Level FlightAware ADS-B
Wed 07:57:37 PM 29.8964 -95.3251 90° East 271 312 5,800  Level FlightAware ADS-B (EGLF / FAB)
Wed 07:57:49 PM 29.8965 -95.3069 90° East 271 312 5,800  Level FlightAware ADS-B
Wed 07:58:04 PM 29.8965 -95.2850 90° East 270 311 5,800  Level FlightAware ADS-B
Wed 07:58:19 PM 29.8966 -95.2626 90° East 270 311 5,800  Level FlightAware ADS-B (EGLF / FAB)
Wed 07:58:29 PM 29.8966 -95.2482 90° East 269 310 5,800  Level FlightAware ADS-B
Wed 07:58:39 PM 29.8967 -95.2339 90° East 269 310 5,800  Level FlightAware ADS-B (EGLF / FAB)
Wed 07:58:45 PM 29.8967 -95.2253 90° East 268 308 5,800  Level FlightAware ADS-B
Wed 07:58:59 PM 29.8967 -95.2047 90° East 257 296 5,800  Level FlightAware ADS-B (EGLF / FAB)
Wed 07:59:01 PM 29.8967 -95.2040 93° East 257 296 5,800  Level FlightAware ADS-B
Wed 07:59:16 PM 29.8968 -95.1829 90° East 251 289 5,800  Level FlightAware ADS-B
Wed 07:59:17 PM 29.8968 -95.1817 89° East 251 289 5,800  Level FlightAware ADS-B (EGLF / FAB)
Wed 07:59:28 PM 29.8969 -95.1676 90° East 250 288 5,800 -273 Level FlightAware ADS-B
Wed 07:59:39 PM 29.8968 -95.1547 90° East 243 280 5,700 -800 Descending FlightAware ADS-B (EGLF / FAB)
Wed 07:59:43 PM 29.8968 -95.1481 90° East 243 280 5,600 -2,471 Descending FlightAware ADS-B
Wed 07:59:56 PM 29.8968 -95.1311 90° East 247 284 5,000 -2,357 Descending FlightAware ADS-B
Wed 08:00:11 PM 29.8968 -95.1112 90° East 247 284 4,500 -2,100 Descending FlightAware ADS-B
Wed 08:00:16 PM 29.8971 -95.1047 87° East 247 284 4,300 -2,000 Descending FlightAware ADS-B
Wed 08:00:20 PM 29.8977 -95.0999 82° East 247 284 4,200 -2,571 Descending FlightAware ADS-B
Wed 08:00:23 PM 29.8988 -95.0953 75° East 246 283 4,000 -2,308 Descending FlightAware ADS-B
Wed 08:00:33 PM 29.9037 -95.0848 62° Northeast 245 282 3,700 -2,118 Descending FlightAware ADS-B
Wed 08:00:40 PM 29.9097 -95.0778 45° Northeast 238 274 3,400 -2,500 Descending FlightAware ADS-B
Wed 08:00:45 PM 29.9142 -95.0745 32° Northeast 235 270 3,200 -2,000 Descending FlightAware ADS-B
Wed 08:00:49 PM 29.9174 -95.0728 25° Northeast 233 268 3,100 -1,500 Descending FlightAware ADS-B
Wed 08:00:53 PM 29.9215 -95.0712 19° North 236 272 3,000 -1,800 Descending FlightAware ADS-B
Wed 08:00:59 PM 29.9283 -95.0702 North 233 268 2,800 -2,667 Descending FlightAware ADS-B
Wed 08:01:02 PM 29.9322 -95.0705 356° North 232 267 2,600 -3,000 Descending FlightAware ADS-B
Wed 08:01:05 PM 29.9354 -95.0711 351° North 231 266 2,500 -2,000 Descending FlightAware ADS-B
Wed 08:01:08 PM 29.9384 -95.0720 345° North 231 266 2,400 -1,714 Descending FlightAware ADS-B
Wed 08:01:12 PM 29.9417 -95.0735 339° North 230 265 2,300 -1,714 Descending FlightAware ADS-B
Wed 08:01:15 PM 29.9451 -95.0756 332° Northwest 230 265 2,200 -1,714 Descending FlightAware ADS-B
Wed 08:01:19 PM 29.9481 -95.0782 323° Northwest 231 266 2,100 -1,714 Descending FlightAware ADS-B
Wed 08:01:22 PM 29.9510 -95.0812 318° Northwest 230 265 2,000 -2,000 Descending FlightAware ADS-B
Wed 08:01:25 PM 29.9531 -95.0841 310° West 229 264 1,900 -1,200 Descending FlightAware ADS-B
Wed 08:01:27 PM 29.9498 -95.0799 132° Southeast 246 283 1,900 -857 Level FlightAware ADS-B (EGLF / FAB)
Wed 08:01:32 PM 29.9564 -95.0908 305° West 226 260 1,800 -667 Descending FlightAware ADS-B
Wed 08:01:36 PM 29.9583 -95.0958 294° West 222 255 1,800  Level FlightAware ADS-B
Wed 08:01:38 PM 29.9589 -95.0974 293° West 218 251 1,800  Level FlightAware ADS-B (EGLF / FAB)
Wed 08:01:50 PM 29.9636 -95.1101 293° West 206 237 1,800  Level FlightAware ADS-B
Wed 08:01:58 PM 29.9662 -95.1170 294° West 196 226 1,800  Level FlightAware ADS-B (EGLF / FAB)
Wed 08:02:08 PM 29.9701 -95.1273 293° West 191 220 1,800  Level FlightAware ADS-B
Wed 08:02:16 PM 29.9723 -95.1331 294° West 189 217 1,800  Level FlightAware ADS-B (EGLF / FAB)
Wed 08:02:27 PM 29.9761 -95.1442 292° West 188 216 1,800  Level FlightAware ADS-B
Wed 08:02:31 PM 29.9770 -95.1482 285° West 188 216 1,800  Level FlightAware ADS-B
Wed 08:02:35 PM 29.9774 -95.1520 277° West 188 216 1,800  Level FlightAware ADS-B
Wed 08:02:39 PM 29.9777 -95.1560 275° West 187 215 1,800  Level FlightAware ADS-B
Wed 08:02:47 PM 29.9778 -95.1640 271° West 187 215 1,800  Level FlightAware ADS-B
Wed 08:02:55 PM 29.9777 -95.1725 269° West 187 215 1,800  Level FlightAware ADS-B
Wed 08:02:59 PM 29.9777 -95.1767 269° West 187 215 1,800  Level FlightAware ADS-B (EGLF / FAB)
Wed 08:03:07 PM 29.9775 -95.1839 269° West 188 216 1,800 -667 Level FlightAware ADS-B
Wed 08:03:26 PM 29.9776 -95.2033 270° West 188 216 1,500 -811 Descending FlightAware ADS-B
Wed 08:03:44 PM 29.9776 -95.2208 270° West 179 206 1,300 -857 Descending FlightAware ADS-B
Wed 08:04:01 PM 29.9775 -95.2357 270° West 161 185 1,000 -968 Descending FlightAware ADS-B
Wed 08:04:15 PM 29.9775 -95.2472 270° West 157 181 800 -783 Descending FlightAware ADS-B
Wed 08:04:24 PM 29.9776 -95.2545 271° West 156 180 700 -462 Descending FlightAware ADS-B
Wed 08:04:28 PM 29.9776 -95.2520 91° East 155 178 700 -750 Level FlightAware ADS-B (EGLF / FAB)
Wed 08:04:32 PM 29.9776 -95.2612 270° West 155 178 600 -800 Descending FlightAware ADS-B
Wed 08:04:43 PM 29.9776 -95.2704 270° West 155 178 500 -667 Descending FlightAware ADS-B
Wed 08:04:59 PM 29.9776 -95.2839 270° West 156 180 300 -750 Descending FlightAware ADS-B
Wed 08:05:15 PM 29.9776 -95.2966 270° West 156 180 100 -750 Descending FlightAware ADS-B

Login

Don't have an account? Register now (free) for customized features, flight alerts, and more!